sensor_id;sensor_type;location;lat;lon;timestamp;temperature;humidity
27567;DHT22;15006;48.584;9.186;2024-03-08T00:01:13;0.00;99.90
27567;DHT22;15006;48.584;9.186;2024-03-08T00:03:39;0.00;99.90
27567;DHT22;15006;48.584;9.186;2024-03-08T00:06:06;0.00;99.90
27567;DHT22;15006;48.584;9.186;2024-03-08T00:08:32;0.00;99.90
27567;DHT22;15006;48.584;9.186;2024-03-08T00:10:57;-0.10;99.90
27567;DHT22;15006;48.584;9.186;2024-03-08T00:13:24;-0.10;99.60
27567;DHT22;15006;48.584;9.186;2024-03-08T00:15:50;-0.10;99.30
27567;DHT22;15006;48.584;9.186;2024-03-08T00:18:16;-0.20;99.10
27567;DHT22;15006;48.584;9.186;2024-03-08T00:20:43;-0.30;98.90
27567;DHT22;15006;48.584;9.186;2024-03-08T00:23:10;-0.30;98.70
27567;DHT22;15006;48.584;9.186;2024-03-08T00:25:37;-0.40;98.40
27567;DHT22;15006;48.584;9.186;2024-03-08T00:28:04;-0.50;98.20
27567;DHT22;15006;48.584;9.186;2024-03-08T00:30:31;-0.50;98.20
27567;DHT22;15006;48.584;9.186;2024-03-08T00:32:57;-0.60;98.20
27567;DHT22;15006;48.584;9.186;2024-03-08T00:35:23;-0.70;98.50
27567;DHT22;15006;48.584;9.186;2024-03-08T00:37:49;-0.80;98.70
27567;DHT22;15006;48.584;9.186;2024-03-08T00:40:16;-0.80;98.80
27567;DHT22;15006;48.584;9.186;2024-03-08T00:42:42;-0.90;99.00
27567;DHT22;15006;48.584;9.186;2024-03-08T00:45:10;-0.90;99.00
27567;DHT22;15006;48.584;9.186;2024-03-08T00:47:36;-1.00;98.80
27567;DHT22;15006;48.584;9.186;2024-03-08T00:50:02;-1.00;98.80
27567;DHT22;15006;48.584;9.186;2024-03-08T00:52:31;-1.10;98.90
27567;DHT22;15006;48.584;9.186;2024-03-08T00:54:57;-1.10;99.30
27567;DHT22;15006;48.584;9.186;2024-03-08T00:57:23;-1.20;99.40
27567;DHT22;15006;48.584;9.186;2024-03-08T00:59:49;-1.20;99.40
27567;DHT22;15006;48.584;9.186;2024-03-08T01:02:15;-1.30;99.30
27567;DHT22;15006;48.584;9.186;2024-03-08T01:04:44;-1.30;99.40
27567;DHT22;15006;48.584;9.186;2024-03-08T01:07:10;-1.40;99.50
27567;DHT22;15006;48.584;9.186;2024-03-08T01:09:36;-1.40;99.90
27567;DHT22;15006;48.584;9.186;2024-03-08T01:12:02;-1.40;99.80
27567;DHT22;15006;48.584;9.186;2024-03-08T01:14:28;-1.50;99.90
27567;DHT22;15006;48.584;9.186;2024-03-08T01:16:56;-1.50;99.90
27567;DHT22;15006;48.584;9.186;2024-03-08T01:19:22;-1.50;99.90
27567;DHT22;15006;48.584;9.186;2024-03-08T01:21:49;-1.60;99.90
27567;DHT22;15006;48.584;9.186;2024-03-08T01:24:15;-1.60;99.90
27567;DHT22;15006;48.584;9.186;2024-03-08T01:26:41;-1.50;99.90
27567;DHT22;15006;48.584;9.186;2024-03-08T01:29:07;-1.60;99.90
27567;DHT22;15006;48.584;9.186;2024-03-08T01:31:33;-1.60;99.90
27567;DHT22;15006;48.584;9.186;2024-03-08T01:33:59;-1.60;99.90
27567;DHT22;15006;48.584;9.186;2024-03-08T01:36:25;-1.60;99.90
27567;DHT22;15006;48.584;9.186;2024-03-08T01:38:52;-1.60;99.90
27567;DHT22;15006;48.584;9.186;2024-03-08T01:41:18;-1.60;99.90
27567;DHT22;15006;48.584;9.186;2024-03-08T01:43:45;-1.70;99.90
27567;DHT22;15006;48.584;9.186;2024-03-08T01:46:15;-1.70;99.90
27567;DHT22;15006;48.584;9.186;2024-03-08T01:48:44;-1.70;99.90
27567;DHT22;15006;48.584;9.186;2024-03-08T01:51:11;-1.60;99.90
27567;DHT22;15006;48.584;9.186;2024-03-08T01:53:38;-1.60;99.90
27567;DHT22;15006;48.584;9.186;2024-03-08T01:56:05;-1.60;99.90
27567;DHT22;15006;48.584;9.186;2024-03-08T01:58:31;-1.60;99.90
27567;DHT22;15006;48.584;9.186;2024-03-08T02:00:59;-1.60;99.90
27567;DHT22;15006;48.584;9.186;2024-03-08T02:03:26;-1.60;99.90
27567;DHT22;15006;48.584;9.186;2024-03-08T02:05:52;-1.60;99.90
27567;DHT22;15006;48.584;9.186;2024-03-08T02:08:19;-1.60;99.90
27567;DHT22;15006;48.584;9.186;2024-03-08T02:10:48;-1.60;99.90
27567;DHT22;15006;48.584;9.186;2024-03-08T02:13:15;-1.60;99.90
27567;DHT22;15006;48.584;9.186;2024-03-08T02:15:51;-1.60;99.90
27567;DHT22;15006;48.584;9.186;2024-03-08T02:18:23;-1.60;99.90
27567;DHT22;15006;48.584;9.186;2024-03-08T02:20:53;-1.60;99.90
27567;DHT22;15006;48.584;9.186;2024-03-08T02:23:21;-1.60;99.90
27567;DHT22;15006;48.584;9.186;2024-03-08T02:25:48;-1.50;99.90
27567;DHT22;15006;48.584;9.186;2024-03-08T02:28:15;-1.50;99.90
27567;DHT22;15006;48.584;9.186;2024-03-08T02:30:41;-1.50;99.90
27567;DHT22;15006;48.584;9.186;2024-03-08T02:33:08;-1.50;99.90
27567;DHT22;15006;48.584;9.186;2024-03-08T02:35:37;-1.50;99.90
27567;DHT22;15006;48.584;9.186;2024-03-08T02:38:04;-1.60;99.90
27567;DHT22;15006;48.584;9.186;2024-03-08T02:40:30;-1.50;99.90
27567;DHT22;15006;48.584;9.186;2024-03-08T02:42:56;-1.50;99.90
27567;DHT22;15006;48.584;9.186;2024-03-08T02:45:22;-1.50;99.90
27567;DHT22;15006;48.584;9.186;2024-03-08T02:47:48;-1.50;99.90
27567;DHT22;15006;48.584;9.186;2024-03-08T02:50:17;-1.50;99.90
27567;DHT22;15006;48.584;9.186;2024-03-08T02:52:43;-1.60;99.90
27567;DHT22;15006;48.584;9.186;2024-03-08T02:55:09;-1.60;99.90
27567;DHT22;15006;48.584;9.186;2024-03-08T02:57:36;-1.60;99.90
27567;DHT22;15006;48.584;9.186;2024-03-08T03:00:03;-1.60;99.90
27567;DHT22;15006;48.584;9.186;2024-03-08T03:02:35;-1.60;99.90
27567;DHT22;15006;48.584;9.186;2024-03-08T03:05:01;-1.70;99.90
27567;DHT22;15006;48.584;9.186;2024-03-08T03:07:32;-1.60;99.90
27567;DHT22;15006;48.584;9.186;2024-03-08T03:10:02;-1.70;99.90
27567;DHT22;15006;48.584;9.186;2024-03-08T03:12:29;-1.70;99.90
27567;DHT22;15006;48.584;9.186;2024-03-08T03:14:56;-1.70;99.90
27567;DHT22;15006;48.584;9.186;2024-03-08T03:17:26;-1.80;99.90
27567;DHT22;15006;48.584;9.186;2024-03-08T03:19:52;-1.80;99.90
27567;DHT22;15006;48.584;9.186;2024-03-08T03:22:19;-1.80;99.90
27567;DHT22;15006;48.584;9.186;2024-03-08T03:24:45;-1.90;99.90
27567;DHT22;15006;48.584;9.186;2024-03-08T03:27:17;-1.90;99.90
27567;DHT22;15006;48.584;9.186;2024-03-08T03:29:43;-1.90;99.90
27567;DHT22;15006;48.584;9.186;2024-03-08T03:32:13;-2.00;99.90
27567;DHT22;15006;48.584;9.186;2024-03-08T03:34:39;-2.00;99.90
27567;DHT22;15006;48.584;9.186;2024-03-08T03:37:06;-2.00;99.90
27567;DHT22;15006;48.584;9.186;2024-03-08T03:39:34;-2.10;99.90
27567;DHT22;15006;48.584;9.186;2024-03-08T03:42:06;-2.10;99.90
27567;DHT22;15006;48.584;9.186;2024-03-08T03:44:32;-2.10;99.90
27567;DHT22;15006;48.584;9.186;2024-03-08T03:46:58;-2.10;99.90
27567;DHT22;15006;48.584;9.186;2024-03-08T03:49:24;-2.20;99.90
27567;DHT22;15006;48.584;9.186;2024-03-08T03:51:50;-2.20;99.80
27567;DHT22;15006;48.584;9.186;2024-03-08T03:54:16;-2.30;99.90
27567;DHT22;15006;48.584;9.186;2024-03-08T03:56:42;-2.30;99.80
27567;DHT22;15006;48.584;9.186;2024-03-08T03:59:08;-2.30;99.70
27567;DHT22;15006;48.584;9.186;2024-03-08T04:01:34;-2.40;99.70
27567;DHT22;15006;48.584;9.186;2024-03-08T04:04:00;-2.40;99.80
27567;DHT22;15006;48.584;9.186;2024-03-08T04:06:26;-2.40;99.80
27567;DHT22;15006;48.584;9.186;2024-03-08T04:08:52;-2.50;99.60
27567;DHT22;15006;48.584;9.186;2024-03-08T04:11:18;-2.50;99.70
27567;DHT22;15006;48.584;9.186;2024-03-08T04:13:44;-2.60;99.90
27567;DHT22;15006;48.584;9.186;2024-03-08T04:16:12;-2.60;99.90
27567;DHT22;15006;48.584;9.186;2024-03-08T04:18:38;-2.60;99.90
27567;DHT22;15006;48.584;9.186;2024-03-08T04:21:05;-2.60;99.90
27567;DHT22;15006;48.584;9.186;2024-03-08T04:23:34;-2.60;99.90
27567;DHT22;15006;48.584;9.186;2024-03-08T04:26:03;-2.70;99.90
27567;DHT22;15006;48.584;9.186;2024-03-08T04:28:31;-2.70;99.90
27567;DHT22;15006;48.584;9.186;2024-03-08T04:30:57;-2.70;99.90
27567;DHT22;15006;48.584;9.186;2024-03-08T04:33:26;-2.70;99.90
27567;DHT22;15006;48.584;9.186;2024-03-08T04:35:53;-2.70;99.90
27567;DHT22;15006;48.584;9.186;2024-03-08T04:38:18;-2.80;99.80
27567;DHT22;15006;48.584;9.186;2024-03-08T04:40:45;-2.80;99.70
27567;DHT22;15006;48.584;9.186;2024-03-08T04:43:10;-2.80;99.60
27567;DHT22;15006;48.584;9.186;2024-03-08T04:45:36;-2.90;99.70
27567;DHT22;15006;48.584;9.186;2024-03-08T04:48:03;-2.90;99.80
27567;DHT22;15006;48.584;9.186;2024-03-08T04:50:29;-2.90;99.70
27567;DHT22;15006;48.584;9.186;2024-03-08T04:52:55;-2.90;99.50
27567;DHT22;15006;48.584;9.186;2024-03-08T04:55:21;-3.00;99.30
27567;DHT22;15006;48.584;9.186;2024-03-08T04:57:55;-3.00;99.30
27567;DHT22;15006;48.584;9.186;2024-03-08T05:00:21;-3.00;99.10
27567;DHT22;15006;48.584;9.186;2024-03-08T05:02:47;-3.10;99.20
27567;DHT22;15006;48.584;9.186;2024-03-08T05:05:13;-3.10;99.30
27567;DHT22;15006;48.584;9.186;2024-03-08T05:07:39;-3.10;99.40
27567;DHT22;15006;48.584;9.186;2024-03-08T05:10:06;-3.20;99.50
27567;DHT22;15006;48.584;9.186;2024-03-08T05:12:33;-3.20;99.70
27567;DHT22;15006;48.584;9.186;2024-03-08T05:14:59;-3.20;99.60
27567;DHT22;15006;48.584;9.186;2024-03-08T05:17:26;-3.20;99.60
27567;DHT22;15006;48.584;9.186;2024-03-08T05:19:51;-3.30;99.40
27567;DHT22;15006;48.584;9.186;2024-03-08T05:22:18;-3.30;99.50
27567;DHT22;15006;48.584;9.186;2024-03-08T05:24:44;-3.30;99.40
27567;DHT22;15006;48.584;9.186;2024-03-08T05:27:10;-3.30;99.20
27567;DHT22;15006;48.584;9.186;2024-03-08T05:29:36;-3.40;99.10
27567;DHT22;15006;48.584;9.186;2024-03-08T05:32:03;-3.40;99.10
27567;DHT22;15006;48.584;9.186;2024-03-08T05:34:29;-3.40;99.10
27567;DHT22;15006;48.584;9.186;2024-03-08T05:36:56;-3.40;99.20
27567;DHT22;15006;48.584;9.186;2024-03-08T05:39:23;-3.40;99.30
27567;DHT22;15006;48.584;9.186;2024-03-08T05:41:50;-3.40;99.50
27567;DHT22;15006;48.584;9.186;2024-03-08T05:44:16;-3.50;99.60
27567;DHT22;15006;48.584;9.186;2024-03-08T05:46:42;-3.50;99.80
27567;DHT22;15006;48.584;9.186;2024-03-08T05:49:09;-3.50;99.90
27567;DHT22;15006;48.584;9.186;2024-03-08T05:51:37;-3.50;99.90
27567;DHT22;15006;48.584;9.186;2024-03-08T05:54:09;-3.50;99.90
27567;DHT22;15006;48.584;9.186;2024-03-08T05:56:36;-3.40;99.90
27567;DHT22;15006;48.584;9.186;2024-03-08T05:59:03;-3.40;99.90
27567;DHT22;15006;48.584;9.186;2024-03-08T06:01:29;-3.40;99.90
27567;DHT22;15006;48.584;9.186;2024-03-08T06:03:57;-3.30;99.90
27567;DHT22;15006;48.584;9.186;2024-03-08T06:06:24;-3.20;99.90
27567;DHT22;15006;48.584;9.186;2024-03-08T06:08:50;-3.20;99.90
27567;DHT22;15006;48.584;9.186;2024-03-08T06:11:18;-3.10;99.90
27567;DHT22;15006;48.584;9.186;2024-03-08T06:13:49;-3.10;99.90
27567;DHT22;15006;48.584;9.186;2024-03-08T06:16:15;-3.10;99.90
27567;DHT22;15006;48.584;9.186;2024-03-08T06:18:41;-3.00;99.90
27567;DHT22;15006;48.584;9.186;2024-03-08T06:21:08;-2.90;99.90
27567;DHT22;15006;48.584;9.186;2024-03-08T06:23:41;-2.90;99.90
27567;DHT22;15006;48.584;9.186;2024-03-08T06:26:08;-2.80;99.90
27567;DHT22;15006;48.584;9.186;2024-03-08T06:28:34;-2.70;99.90
27567;DHT22;15006;48.584;9.186;2024-03-08T06:31:03;-2.70;99.90
27567;DHT22;15006;48.584;9.186;2024-03-08T06:33:29;-2.60;99.90
27567;DHT22;15006;48.584;9.186;2024-03-08T06:35:58;-2.50;99.90
27567;DHT22;15006;48.584;9.186;2024-03-08T06:38:24;-2.50;99.90
27567;DHT22;15006;48.584;9.186;2024-03-08T06:40:51;-2.40;99.90
27567;DHT22;15006;48.584;9.186;2024-03-08T06:43:18;-2.30;99.90
27567;DHT22;15006;48.584;9.186;2024-03-08T06:45:44;-2.20;99.90
27567;DHT22;15006;48.584;9.186;2024-03-08T06:48:15;-2.10;99.90
27567;DHT22;15006;48.584;9.186;2024-03-08T06:50:45;-2.00;99.90
27567;DHT22;15006;48.584;9.186;2024-03-08T06:53:12;-2.00;99.90
27567;DHT22;15006;48.584;9.186;2024-03-08T06:55:42;-1.80;99.90
27567;DHT22;15006;48.584;9.186;2024-03-08T06:58:08;-1.70;99.90
27567;DHT22;15006;48.584;9.186;2024-03-08T07:00:34;-1.60;99.90
27567;DHT22;15006;48.584;9.186;2024-03-08T07:03:00;-1.60;99.90
27567;DHT22;15006;48.584;9.186;2024-03-08T07:05:29;-1.40;99.90
27567;DHT22;15006;48.584;9.186;2024-03-08T07:07:56;-1.30;99.90
27567;DHT22;15006;48.584;9.186;2024-03-08T07:10:22;-1.30;99.90
27567;DHT22;15006;48.584;9.186;2024-03-08T07:12:51;-1.20;99.90
27567;DHT22;15006;48.584;9.186;2024-03-08T07:15:20;-1.10;99.90
27567;DHT22;15006;48.584;9.186;2024-03-08T07:17:47;-1.00;99.90
27567;DHT22;15006;48.584;9.186;2024-03-08T07:20:15;-0.90;99.90
27567;DHT22;15006;48.584;9.186;2024-03-08T07:22:45;-0.80;99.90
27567;DHT22;15006;48.584;9.186;2024-03-08T07:25:17;-0.70;99.90
27567;DHT22;15006;48.584;9.186;2024-03-08T07:27:54;-0.60;99.90
27567;DHT22;15006;48.584;9.186;2024-03-08T07:30:25;-0.50;99.90
27567;DHT22;15006;48.584;9.186;2024-03-08T07:33:10;-0.40;99.90
27567;DHT22;15006;48.584;9.186;2024-03-08T07:35:38;-0.30;99.90
27567;DHT22;15006;48.584;9.186;2024-03-08T07:38:08;-0.20;99.90
27567;DHT22;15006;48.584;9.186;2024-03-08T07:40:38;-0.20;99.90
27567;DHT22;15006;48.584;9.186;2024-03-08T07:43:09;-0.10;99.90
27567;DHT22;15006;48.584;9.186;2024-03-08T07:45:40;0.00;99.90
27567;DHT22;15006;48.584;9.186;2024-03-08T07:48:06;0.00;99.90
27567;DHT22;15006;48.584;9.186;2024-03-08T07:50:39;0.10;99.90
27567;DHT22;15006;48.584;9.186;2024-03-08T07:53:06;0.10;99.90
27567;DHT22;15006;48.584;9.186;2024-03-08T07:55:33;0.20;99.90
27567;DHT22;15006;48.584;9.186;2024-03-08T07:58:01;0.30;99.90
27567;DHT22;15006;48.584;9.186;2024-03-08T08:00:29;0.30;99.90
27567;DHT22;15006;48.584;9.186;2024-03-08T08:02:57;0.40;99.90
27567;DHT22;15006;48.584;9.186;2024-03-08T08:05:23;0.40;99.90
27567;DHT22;15006;48.584;9.186;2024-03-08T08:07:49;0.50;99.90
27567;DHT22;15006;48.584;9.186;2024-03-08T08:10:16;0.50;99.90
27567;DHT22;15006;48.584;9.186;2024-03-08T08:12:48;0.60;99.90
27567;DHT22;15006;48.584;9.186;2024-03-08T08:15:14;0.70;99.90
27567;DHT22;15006;48.584;9.186;2024-03-08T08:17:42;0.70;99.90
27567;DHT22;15006;48.584;9.186;2024-03-08T08:20:09;0.80;99.90
27567;DHT22;15006;48.584;9.186;2024-03-08T08:22:40;0.90;99.90
27567;DHT22;15006;48.584;9.186;2024-03-08T08:25:07;1.00;99.90
27567;DHT22;15006;48.584;9.186;2024-03-08T08:27:34;1.10;99.90
27567;DHT22;15006;48.584;9.186;2024-03-08T08:29:59;1.10;99.90
27567;DHT22;15006;48.584;9.186;2024-03-08T08:32:26;1.20;99.90
27567;DHT22;15006;48.584;9.186;2024-03-08T08:34:52;1.20;99.90
27567;DHT22;15006;48.584;9.186;2024-03-08T08:37:18;1.30;99.90
27567;DHT22;15006;48.584;9.186;2024-03-08T08:39:44;1.30;99.90
27567;DHT22;15006;48.584;9.186;2024-03-08T08:42:10;1.40;99.90
27567;DHT22;15006;48.584;9.186;2024-03-08T08:44:36;1.40;99.90
27567;DHT22;15006;48.584;9.186;2024-03-08T08:47:02;1.50;99.90
27567;DHT22;15006;48.584;9.186;2024-03-08T08:49:31;1.50;99.90
27567;DHT22;15006;48.584;9.186;2024-03-08T08:51:57;1.50;99.90
27567;DHT22;15006;48.584;9.186;2024-03-08T08:54:26;1.60;99.90
27567;DHT22;15006;48.584;9.186;2024-03-08T08:56:53;1.60;99.90
27567;DHT22;15006;48.584;9.186;2024-03-08T08:59:19;1.60;99.90
27567;DHT22;15006;48.584;9.186;2024-03-08T09:01:45;1.60;99.90
27567;DHT22;15006;48.584;9.186;2024-03-08T09:04:15;1.60;99.90
27567;DHT22;15006;48.584;9.186;2024-03-08T09:06:42;1.70;99.90
27567;DHT22;15006;48.584;9.186;2024-03-08T09:09:08;1.70;99.90
27567;DHT22;15006;48.584;9.186;2024-03-08T09:11:35;1.70;99.90
27567;DHT22;15006;48.584;9.186;2024-03-08T09:14:00;1.70;99.90
27567;DHT22;15006;48.584;9.186;2024-03-08T09:16:28;1.70;99.90
27567;DHT22;15006;48.584;9.186;2024-03-08T09:18:54;1.70;99.90
27567;DHT22;15006;48.584;9.186;2024-03-08T09:21:19;1.70;99.90
27567;DHT22;15006;48.584;9.186;2024-03-08T09:23:45;1.80;99.90
27567;DHT22;15006;48.584;9.186;2024-03-08T09:26:12;1.70;99.90
27567;DHT22;15006;48.584;9.186;2024-03-08T09:28:38;1.80;99.90
27567;DHT22;15006;48.584;9.186;2024-03-08T09:31:04;1.80;99.90
27567;DHT22;15006;48.584;9.186;2024-03-08T09:33:31;1.90;99.90
27567;DHT22;15006;48.584;9.186;2024-03-08T09:35:57;1.90;99.90
27567;DHT22;15006;48.584;9.186;2024-03-08T09:38:25;2.00;99.90
27567;DHT22;15006;48.584;9.186;2024-03-08T09:40:51;2.10;99.90
27567;DHT22;15006;48.584;9.186;2024-03-08T09:43:19;2.20;99.90
27567;DHT22;15006;48.584;9.186;2024-03-08T09:45:45;2.20;99.90
27567;DHT22;15006;48.584;9.186;2024-03-08T09:48:16;2.30;99.90
27567;DHT22;15006;48.584;9.186;2024-03-08T09:50:44;2.40;99.90
27567;DHT22;15006;48.584;9.186;2024-03-08T09:53:11;2.50;99.90
27567;DHT22;15006;48.584;9.186;2024-03-08T09:55:38;2.60;99.90
27567;DHT22;15006;48.584;9.186;2024-03-08T09:58:08;2.60;99.90
27567;DHT22;15006;48.584;9.186;2024-03-08T10:00:51;2.70;99.90
27567;DHT22;15006;48.584;9.186;2024-03-08T10:03:19;2.80;99.90
27567;DHT22;15006;48.584;9.186;2024-03-08T10:05:45;2.90;99.90
27567;DHT22;15006;48.584;9.186;2024-03-08T10:08:12;2.90;99.90
27567;DHT22;15006;48.584;9.186;2024-03-08T10:10:39;3.00;99.90
27567;DHT22;15006;48.584;9.186;2024-03-08T10:13:09;3.00;99.90
27567;DHT22;15006;48.584;9.186;2024-03-08T10:15:36;3.10;99.90
27567;DHT22;15006;48.584;9.186;2024-03-08T10:18:04;3.20;98.10
27567;DHT22;15006;48.584;9.186;2024-03-08T10:20:33;3.30;99.90
27567;DHT22;15006;48.584;9.186;2024-03-08T10:23:03;3.40;99.90
27567;DHT22;15006;48.584;9.186;2024-03-08T10:25:34;3.40;99.90
27567;DHT22;15006;48.584;9.186;2024-03-08T10:28:03;3.50;99.90
27567;DHT22;15006;48.584;9.186;2024-03-08T10:30:30;3.50;99.90
27567;DHT22;15006;48.584;9.186;2024-03-08T10:32:56;3.60;99.90
27567;DHT22;15006;48.584;9.186;2024-03-08T10:35:22;3.60;99.90
27567;DHT22;15006;48.584;9.186;2024-03-08T10:37:50;3.70;99.90
27567;DHT22;15006;48.584;9.186;2024-03-08T10:40:26;3.70;99.90
27567;DHT22;15006;48.584;9.186;2024-03-08T10:42:57;3.70;99.90
27567;DHT22;15006;48.584;9.186;2024-03-08T10:50:54;3.90;97.60
27567;DHT22;15006;48.584;9.186;2024-03-08T10:53:20;4.00;99.90
27567;DHT22;15006;48.584;9.186;2024-03-08T10:55:47;4.10;99.90
27567;DHT22;15006;48.584;9.186;2024-03-08T10:58:16;4.20;99.90
27567;DHT22;15006;48.584;9.186;2024-03-08T11:00:43;4.40;99.90
27567;DHT22;15006;48.584;9.186;2024-03-08T11:07:00;5.00;99.90
27567;DHT22;15006;48.584;9.186;2024-03-08T11:09:29;5.50;99.90
27567;DHT22;15006;48.584;9.186;2024-03-08T11:12:27;6.30;99.90
27567;DHT22;15006;48.584;9.186;2024-03-08T11:15:10;7.10;94.60
27567;DHT22;15006;48.584;9.186;2024-03-08T11:20:17;8.00;99.90
27567;DHT22;15006;48.584;9.186;2024-03-08T11:22:59;8.20;99.40
27567;DHT22;15006;48.584;9.186;2024-03-08T11:28:15;8.40;96.10
27567;DHT22;15006;48.584;9.186;2024-03-08T11:30:44;8.40;93.20
27567;DHT22;15006;48.584;9.186;2024-03-08T11:33:15;8.50;99.90
27567;DHT22;15006;48.584;9.186;2024-03-08T11:35:42;8.70;99.90
27567;DHT22;15006;48.584;9.186;2024-03-08T11:38:12;9.00;99.90
27567;DHT22;15006;48.584;9.186;2024-03-08T11:40:39;9.40;99.90
27567;DHT22;15006;48.584;9.186;2024-03-08T11:43:05;9.90;99.90
27567;DHT22;15006;48.584;9.186;2024-03-08T11:45:34;10.60;99.90
27567;DHT22;15006;48.584;9.186;2024-03-08T11:48:06;11.20;99.90
27567;DHT22;15006;48.584;9.186;2024-03-08T11:50:33;11.80;99.90
27567;DHT22;15006;48.584;9.186;2024-03-08T11:53:05;12.30;99.90
27567;DHT22;15006;48.584;9.186;2024-03-08T11:55:32;12.70;98.60
27567;DHT22;15006;48.584;9.186;2024-03-08T11:58:05;13.10;99.90
27567;DHT22;15006;48.584;9.186;2024-03-08T12:00:34;13.60;98.90
27567;DHT22;15006;48.584;9.186;2024-03-08T12:03:13;14.00;99.90
27567;DHT22;15006;48.584;9.186;2024-03-08T12:05:39;14.50;95.50
27567;DHT22;15006;48.584;9.186;2024-03-08T12:08:05;14.90;99.90
27567;DHT22;15006;48.584;9.186;2024-03-08T12:10:38;15.30;99.70
27567;DHT22;15006;48.584;9.186;2024-03-08T12:13:04;15.70;97.60
27567;DHT22;15006;48.584;9.186;2024-03-08T12:15:39;16.00;95.50
27567;DHT22;15006;48.584;9.186;2024-03-08T12:18:06;16.30;93.00
27567;DHT22;15006;48.584;9.186;2024-03-08T12:20:33;16.60;95.00
27567;DHT22;15006;48.584;9.186;2024-03-08T12:22:59;16.80;91.80
27567;DHT22;15006;48.584;9.186;2024-03-08T12:25:27;17.00;88.10
27567;DHT22;15006;48.584;9.186;2024-03-08T12:28:06;17.10;89.20
27567;DHT22;15006;48.584;9.186;2024-03-08T12:30:47;17.30;90.70
27567;DHT22;15006;48.584;9.186;2024-03-08T12:33:14;17.50;80.10
27567;DHT22;15006;48.584;9.186;2024-03-08T12:35:40;17.70;88.90
27567;DHT22;15006;48.584;9.186;2024-03-08T12:38:07;17.80;85.80
27567;DHT22;15006;48.584;9.186;2024-03-08T12:40:34;18.00;84.80
27567;DHT22;15006;48.584;9.186;2024-03-08T12:43:01;18.00;83.90
27567;DHT22;15006;48.584;9.186;2024-03-08T12:45:28;18.00;83.20
27567;DHT22;15006;48.584;9.186;2024-03-08T12:47:55;18.10;84.10
27567;DHT22;15006;48.584;9.186;2024-03-08T12:50:24;18.30;84.70
27567;DHT22;15006;48.584;9.186;2024-03-08T12:52:53;18.40;79.50
27567;DHT22;15006;48.584;9.186;2024-03-08T12:55:19;18.50;83.70
27567;DHT22;15006;48.584;9.186;2024-03-08T12:57:45;18.70;82.90
27567;DHT22;15006;48.584;9.186;2024-03-08T13:00:12;18.80;80.50
27567;DHT22;15006;48.584;9.186;2024-03-08T13:02:47;18.90;78.60
27567;DHT22;15006;48.584;9.186;2024-03-08T13:05:15;19.00;74.10
27567;DHT22;15006;48.584;9.186;2024-03-08T13:07:41;19.10;77.90
27567;DHT22;15006;48.584;9.186;2024-03-08T13:10:15;19.20;78.00
27567;DHT22;15006;48.584;9.186;2024-03-08T13:12:45;19.30;73.90
27567;DHT22;15006;48.584;9.186;2024-03-08T13:15:11;19.30;73.30
27567;DHT22;15006;48.584;9.186;2024-03-08T13:17:41;19.50;78.10
27567;DHT22;15006;48.584;9.186;2024-03-08T13:20:08;19.60;76.80
27567;DHT22;15006;48.584;9.186;2024-03-08T13:22:41;19.80;75.80
27567;DHT22;15006;48.584;9.186;2024-03-08T13:25:08;19.90;75.20
27567;DHT22;15006;48.584;9.186;2024-03-08T13:27:41;20.00;73.40
27567;DHT22;15006;48.584;9.186;2024-03-08T13:30:14;20.10;69.50
27567;DHT22;15006;48.584;9.186;2024-03-08T13:32:44;20.20;73.60
27567;DHT22;15006;48.584;9.186;2024-03-08T13:35:11;20.20;73.00
27567;DHT22;15006;48.584;9.186;2024-03-08T13:37:41;20.20;71.60
27567;DHT22;15006;48.584;9.186;2024-03-08T13:40:09;20.30;70.70
27567;DHT22;15006;48.584;9.186;2024-03-08T13:42:44;20.30;69.00
27567;DHT22;15006;48.584;9.186;2024-03-08T13:45:10;20.20;70.00
27567;DHT22;15006;48.584;9.186;2024-03-08T13:47:37;20.20;70.60
27567;DHT22;15006;48.584;9.186;2024-03-08T13:50:07;20.20;70.60
27567;DHT22;15006;48.584;9.186;2024-03-08T13:52:41;20.30;69.20
27567;DHT22;15006;48.584;9.186;2024-03-08T13:55:08;20.20;69.10
27567;DHT22;15006;48.584;9.186;2024-03-08T13:57:34;20.30;70.10
27567;DHT22;15006;48.584;9.186;2024-03-08T14:00:00;20.30;70.10
27567;DHT22;15006;48.584;9.186;2024-03-08T14:02:26;20.30;71.20
27567;DHT22;15006;48.584;9.186;2024-03-08T14:04:57;20.50;71.30
27567;DHT22;15006;48.584;9.186;2024-03-08T14:07:27;20.60;71.60
27567;DHT22;15006;48.584;9.186;2024-03-08T14:09:54;20.70;69.90
27567;DHT22;15006;48.584;9.186;2024-03-08T14:12:20;20.80;68.10
27567;DHT22;15006;48.584;9.186;2024-03-08T14:14:47;20.90;68.40
27567;DHT22;15006;48.584;9.186;2024-03-08T14:17:13;21.00;67.00
27567;DHT22;15006;48.584;9.186;2024-03-08T14:19:43;21.00;66.40
27567;DHT22;15006;48.584;9.186;2024-03-08T14:22:09;20.90;66.70
27567;DHT22;15006;48.584;9.186;2024-03-08T14:24:43;20.90;66.00
27567;DHT22;15006;48.584;9.186;2024-03-08T14:27:10;20.90;61.30
27567;DHT22;15006;48.584;9.186;2024-03-08T14:29:38;20.90;66.30
27567;DHT22;15006;48.584;9.186;2024-03-08T14:32:05;20.90;64.40
27567;DHT22;15006;48.584;9.186;2024-03-08T14:34:32;20.80;65.30
27567;DHT22;15006;48.584;9.186;2024-03-08T14:36:59;20.90;65.20
27567;DHT22;15006;48.584;9.186;2024-03-08T14:39:26;20.80;64.80
27567;DHT22;15006;48.584;9.186;2024-03-08T14:41:55;20.90;63.40
27567;DHT22;15006;48.584;9.186;2024-03-08T14:44:21;20.80;63.80
27567;DHT22;15006;48.584;9.186;2024-03-08T14:46:56;20.70;62.90
27567;DHT22;15006;48.584;9.186;2024-03-08T14:49:23;20.70;61.00
27567;DHT22;15006;48.584;9.186;2024-03-08T14:51:49;20.60;63.20
27567;DHT22;15006;48.584;9.186;2024-03-08T14:54:15;20.50;63.50
27567;DHT22;15006;48.584;9.186;2024-03-08T14:56:41;20.40;63.80
27567;DHT22;15006;48.584;9.186;2024-03-08T14:59:07;20.40;64.00
27567;DHT22;15006;48.584;9.186;2024-03-08T15:01:34;20.30;63.40
27567;DHT22;15006;48.584;9.186;2024-03-08T15:04:02;20.20;62.80
27567;DHT22;15006;48.584;9.186;2024-03-08T15:06:37;20.20;63.00
27567;DHT22;15006;48.584;9.186;2024-03-08T15:09:04;20.10;63.10
27567;DHT22;15006;48.584;9.186;2024-03-08T15:11:48;20.10;62.30
27567;DHT22;15006;48.584;9.186;2024-03-08T15:14:17;19.90;57.00
27567;DHT22;15006;48.584;9.186;2024-03-08T15:16:45;19.80;61.00
27567;DHT22;15006;48.584;9.186;2024-03-08T15:19:13;19.50;60.30
27567;DHT22;15006;48.584;9.186;2024-03-08T15:21:41;19.20;59.20
27567;DHT22;15006;48.584;9.186;2024-03-08T15:24:09;18.70;58.90
27567;DHT22;15006;48.584;9.186;2024-03-08T15:26:41;18.30;60.00
27567;DHT22;15006;48.584;9.186;2024-03-08T15:29:09;18.00;62.20
27567;DHT22;15006;48.584;9.186;2024-03-08T15:31:35;17.90;64.00
27567;DHT22;15006;48.584;9.186;2024-03-08T15:34:03;17.80;64.30
27567;DHT22;15006;48.584;9.186;2024-03-08T15:36:32;17.70;64.70
27567;DHT22;15006;48.584;9.186;2024-03-08T15:39:02;17.60;64.80
27567;DHT22;15006;48.584;9.186;2024-03-08T15:41:35;17.50;62.20
27567;DHT22;15006;48.584;9.186;2024-03-08T15:44:02;17.40;66.30
27567;DHT22;15006;48.584;9.186;2024-03-08T15:46:28;17.40;66.90
27567;DHT22;15006;48.584;9.186;2024-03-08T15:48:54;17.40;65.60
27567;DHT22;15006;48.584;9.186;2024-03-08T15:51:20;17.40;66.70
27567;DHT22;15006;48.584;9.186;2024-03-08T15:53:46;17.40;67.00